createdAt,value
2019-02-15T00:00:07.473Z,29.30
2019-02-15T00:02:36.319Z,29.85
2019-02-15T00:05:05.514Z,29.90
2019-02-15T00:07:34.305Z,28.87
2019-02-15T00:10:03.204Z,29.12
2019-02-15T00:12:32.245Z,30.80
2019-02-15T00:15:01.788Z,29.33
2019-02-15T00:18:08.402Z,32.30
2019-02-15T00:20:42.113Z,30.10
2019-02-15T00:23:11.421Z,30.30
2019-02-15T00:25:40.271Z,30.10
2019-02-15T00:28:09.243Z,30.72
2019-02-15T00:30:38.332Z,30.70
2019-02-15T00:33:07.551Z,30.37
2019-02-15T00:35:36.717Z,31.97
2019-02-15T00:38:05.487Z,31.15
2019-02-15T00:40:34.272Z,29.90
2019-02-15T00:43:03.718Z,29.57
2019-02-15T00:45:36.594Z,32.03
2019-02-15T00:48:09.252Z,30.92
2019-02-15T00:50:44.386Z,31.75
2019-02-15T00:53:26.409Z,31.40
2019-02-15T00:56:30.041Z,33.42
2019-02-15T00:59:16.708Z,31.07
2019-02-15T01:02:07.570Z,31.57
2019-02-15T01:04:46.126Z,30.92
2019-02-15T01:07:32.549Z,31.12
2019-02-15T01:10:13.031Z,29.63
2019-02-15T01:12:49.986Z,30.60
2019-02-15T01:15:18.836Z,31.77
2019-02-15T01:17:47.873Z,31.40
2019-02-15T01:20:16.809Z,31.20
2019-02-15T01:22:45.609Z,30.27
2019-02-15T01:25:15.257Z,28.95
2019-02-15T01:28:06.117Z,29.10
2019-02-15T01:30:53.087Z,28.60
2019-02-15T01:33:47.074Z,28.42
2019-02-15T01:36:25.212Z,29.20
2019-02-15T01:39:16.173Z,29.18
2019-02-15T01:42:03.519Z,29.57
2019-02-15T01:44:37.282Z,30.25
2019-02-15T01:47:13.028Z,28.95
2019-02-15T01:49:42.343Z,27.70
2019-02-15T01:52:11.122Z,27.52
2019-02-15T01:54:40.222Z,27.13
2019-02-15T01:57:09.734Z,29.10
2019-02-15T01:59:38.599Z,29.87
2019-02-15T02:02:07.941Z,29.20
2019-02-15T02:04:37.219Z,27.15
2019-02-15T02:07:05.988Z,28.20
2019-02-15T02:09:35.289Z,27.32
2019-02-15T02:12:04.792Z,26.15
2019-02-15T02:14:33.564Z,25.62
2019-02-15T02:17:02.352Z,24.77
2019-02-15T02:19:31.156Z,24.75
2019-02-15T02:22:00.372Z,26.15
2019-02-15T02:24:29.706Z,25.90
2019-02-15T02:26:58.477Z,25.60
2019-02-15T02:29:27.555Z,25.75
2019-02-15T02:31:56.441Z,27.27
2019-02-15T02:34:25.218Z,27.37
2019-02-15T02:36:57.372Z,27.23
2019-02-15T02:39:26.889Z,26.37
2019-02-15T02:41:55.754Z,27.25
2019-02-15T02:44:24.504Z,26.27
2019-02-15T02:46:53.368Z,26.75
2019-02-15T02:49:22.344Z,27.87
2019-02-15T02:51:51.188Z,26.30
2019-02-15T02:54:20.404Z,26.95
2019-02-15T02:56:49.184Z,27.40
2019-02-15T02:59:18.028Z,27.40
2019-02-15T03:01:46.777Z,26.30
2019-02-15T03:04:16.326Z,29.07
2019-02-15T03:06:45.704Z,27.90
2019-02-15T03:09:14.804Z,25.92
2019-02-15T03:11:43.635Z,25.62
2019-02-15T03:14:12.489Z,25.82
2019-02-15T03:16:41.612Z,25.72
2019-02-15T03:19:10.396Z,27.32
2019-02-15T03:21:39.233Z,27.52
2019-02-15T03:24:08.375Z,27.20
2019-02-15T03:26:37.431Z,28.38
2019-02-15T03:29:06.509Z,29.45
2019-02-15T03:31:35.262Z,28.25
2019-02-15T03:34:04.142Z,26.77
2019-02-15T03:36:50.550Z,27.45
2019-02-15T03:39:32.931Z,28.80
2019-02-15T03:42:02.235Z,29.18
2019-02-15T03:44:31.321Z,27.57
2019-02-15T03:47:00.136Z,27.77
2019-02-15T03:49:28.940Z,30.20
2019-02-15T03:51:58.125Z,30.80
2019-02-15T03:54:27.137Z,31.00
2019-02-15T03:56:55.964Z,29.50
2019-02-15T03:59:25.197Z,28.62
2019-02-15T04:01:54.280Z,30.62
2019-02-15T04:04:23.049Z,28.83
2019-02-15T04:06:52.554Z,28.53
2019-02-15T04:09:21.312Z,28.83
2019-02-15T04:11:50.660Z,28.60
2019-02-15T04:14:19.745Z,27.98
2019-02-15T04:16:48.521Z,26.10
2019-02-15T04:19:17.614Z,28.12
2019-02-15T04:21:46.424Z,28.70
2019-02-15T04:24:16.011Z,26.80
2019-02-15T04:26:44.880Z,26.17
2019-02-15T04:29:13.627Z,27.30
2019-02-15T04:31:42.391Z,28.40
2019-02-15T04:34:11.161Z,28.30
2019-02-15T04:36:39.936Z,27.73
2019-02-15T04:39:08.765Z,26.93
2019-02-15T04:41:37.840Z,26.27
2019-02-15T04:44:07.442Z,27.85
2019-02-15T04:46:36.545Z,27.67
2019-02-15T04:49:05.844Z,28.20
2019-02-15T04:51:35.055Z,28.35
2019-02-15T04:54:04.179Z,28.47
2019-02-15T04:56:33.224Z,28.75
2019-02-15T04:59:02.330Z,27.95
2019-02-15T05:01:31.572Z,28.27
2019-02-15T05:04:01.161Z,29.07
2019-02-15T05:06:30.306Z,28.60
2019-02-15T05:08:59.089Z,27.42
2019-02-15T05:11:27.890Z,28.70
2019-02-15T05:13:56.972Z,28.12
2019-02-15T05:16:25.730Z,27.65
2019-02-15T05:18:54.763Z,27.48
2019-02-15T05:21:25.284Z,27.30
2019-02-15T05:23:54.394Z,27.90
2019-02-15T05:26:23.221Z,28.02
2019-02-15T05:28:52.461Z,27.37
2019-02-15T05:31:21.319Z,28.30
2019-02-15T05:33:50.152Z,27.73
2019-02-15T05:36:19.115Z,28.12
2019-02-15T05:38:47.881Z,27.98
2019-02-15T05:41:17.224Z,27.67
2019-02-15T05:43:46.314Z,27.20
2019-02-15T05:46:15.862Z,27.40
2019-02-15T05:48:44.724Z,27.10
2019-02-15T05:51:13.537Z,27.13
2019-02-15T05:53:42.614Z,26.85
2019-02-15T05:56:12.028Z,27.10
2019-02-15T05:58:40.826Z,26.30
2019-02-15T06:01:11.272Z,27.87
2019-02-15T06:03:40.080Z,28.30
2019-02-15T06:06:08.876Z,27.93
2019-02-15T06:08:45.081Z,27.48
2019-02-15T06:11:13.886Z,27.55
2019-02-15T06:13:42.697Z,29.02
2019-02-15T06:16:11.947Z,28.95
2019-02-15T06:18:41.089Z,28.57
2019-02-15T06:21:10.253Z,29.87
2019-02-15T06:23:39.345Z,28.45
2019-02-15T06:26:08.624Z,28.27
2019-02-15T06:28:38.048Z,29.85
2019-02-15T06:31:07.346Z,28.55
2019-02-15T06:33:36.136Z,28.65
2019-02-15T06:36:04.993Z,28.27
2019-02-15T06:38:35.235Z,30.82
2019-02-15T06:41:04.227Z,30.12
2019-02-15T06:43:33.121Z,30.35
2019-02-15T06:46:02.098Z,29.32
2019-02-15T06:48:31.308Z,32.40
2019-02-15T06:51:00.250Z,30.57
2019-02-15T06:53:30.148Z,29.40
2019-02-15T06:55:59.157Z,30.25
2019-02-15T06:58:28.620Z,29.32
2019-02-15T07:01:15.361Z,30.17
2019-02-15T07:03:52.050Z,31.23
2019-02-15T07:06:21.205Z,30.23
2019-02-15T07:08:50.653Z,29.82
2019-02-15T07:11:19.455Z,29.73
2019-02-15T07:13:48.342Z,30.57
2019-02-15T07:16:17.178Z,30.90
2019-02-15T07:18:46.081Z,29.87
2019-02-15T07:21:15.040Z,29.27
2019-02-15T07:23:44.044Z,28.52
2019-02-15T07:26:13.727Z,27.62
2019-02-15T07:28:43.134Z,28.00
2019-02-15T07:31:12.557Z,28.27
2019-02-15T07:33:41.945Z,26.23
2019-02-15T07:36:11.862Z,27.17
2019-02-15T07:38:41.085Z,26.15
2019-02-15T07:41:10.087Z,26.02
2019-02-15T07:43:39.344Z,24.37
2019-02-15T07:46:12.883Z,24.67
2019-02-15T07:48:41.845Z,22.62
2019-02-15T07:51:11.325Z,24.98
2019-02-15T07:53:40.312Z,24.77
2019-02-15T07:56:09.631Z,23.95
2019-02-15T07:58:38.587Z,23.25
2019-02-15T08:01:07.482Z,21.12
2019-02-15T08:03:36.369Z,20.95
2019-02-15T08:06:05.298Z,21.63
2019-02-15T08:08:34.301Z,22.90
2019-02-15T08:11:03.598Z,22.07
2019-02-15T08:13:32.502Z,22.35
2019-02-15T08:16:02.891Z,23.32
2019-02-15T08:18:32.333Z,21.75
2019-02-15T08:21:01.324Z,19.50
2019-02-15T08:23:30.242Z,18.67
2019-02-15T08:25:59.073Z,19.33
2019-02-15T08:28:28.251Z,19.20
2019-02-15T08:30:57.135Z,19.15
2019-02-15T08:33:26.072Z,18.75
2019-02-15T08:35:54.914Z,19.35
2019-02-15T08:38:23.852Z,18.92
2019-02-15T08:40:53.024Z,18.48
2019-02-15T08:43:23.147Z,18.70
2019-02-15T08:46:00.337Z,17.60
2019-02-15T08:48:23.221Z,16.90
2019-02-15T08:50:52.215Z,17.30
2019-02-15T08:53:21.321Z,17.42
2019-02-15T08:55:50.331Z,17.45
2019-02-15T08:58:19.581Z,17.52
2019-02-15T09:00:49.086Z,17.35
2019-02-15T09:03:18.158Z,17.95
2019-02-15T09:05:47.502Z,16.97
2019-02-15T09:08:16.438Z,17.05
2019-02-15T09:10:45.385Z,17.50
2019-02-15T09:13:14.635Z,17.57
2019-02-15T09:15:43.684Z,17.40
2019-02-15T09:18:13.437Z,17.37
2019-02-15T09:20:42.989Z,16.95
2019-02-15T09:23:12.442Z,17.50
2019-02-15T09:25:41.425Z,17.25
2019-02-15T09:28:22.708Z,17.17
2019-02-15T09:30:53.281Z,17.12
2019-02-15T09:33:22.282Z,17.00
2019-02-15T09:35:51.473Z,16.55
2019-02-15T09:38:20.604Z,16.40
2019-02-15T09:40:49.970Z,15.80
2019-02-15T09:43:19.103Z,16.27
2019-02-15T09:45:48.082Z,15.95
2019-02-15T09:48:17.120Z,16.75
2019-02-15T09:50:46.040Z,15.80
2019-02-15T09:53:15.312Z,15.25
2019-02-15T09:55:44.217Z,14.00
2019-02-15T09:58:13.208Z,14.13
2019-02-15T10:00:42.393Z,13.22
2019-02-15T10:03:11.325Z,13.10
2019-02-15T10:05:40.205Z,12.90
2019-02-15T10:08:09.584Z,13.20
2019-02-15T10:10:38.517Z,12.88
2019-02-15T10:13:08.328Z,12.90
2019-02-15T10:15:37.588Z,12.73
2019-02-15T10:18:06.617Z,13.00
2019-02-15T10:20:35.491Z,12.40
2019-02-15T10:23:05.109Z,12.40
2019-02-15T10:25:34.058Z,12.28
2019-02-15T10:28:03.376Z,13.00
2019-02-15T10:30:32.683Z,12.37
2019-02-15T10:33:02.169Z,12.67
2019-02-15T10:35:31.082Z,12.25
2019-02-15T10:38:00.102Z,12.13
2019-02-15T10:40:29.717Z,12.75
2019-02-15T10:42:58.893Z,12.80
2019-02-15T10:45:27.956Z,12.75
2019-02-15T10:47:57.463Z,12.45
2019-02-15T10:50:26.451Z,12.10
2019-02-15T10:52:55.367Z,12.40
2019-02-15T10:55:24.301Z,12.05
2019-02-15T10:57:53.519Z,11.73
2019-02-15T11:00:22.529Z,12.55
2019-02-15T11:02:51.469Z,12.05
2019-02-15T11:05:21.666Z,11.35
2019-02-15T11:07:51.196Z,12.07
2019-02-15T11:10:20.615Z,12.05
2019-02-15T11:12:49.745Z,11.80
2019-02-15T11:15:37.876Z,11.70
2019-02-15T11:18:17.318Z,11.12
2019-02-15T11:20:46.304Z,11.65
2019-02-15T11:23:15.546Z,11.70
2019-02-15T11:25:44.694Z,11.63
2019-02-15T11:28:13.905Z,11.85
2019-02-15T11:30:42.769Z,12.23
2019-02-15T11:33:11.668Z,12.37
2019-02-15T11:35:40.912Z,11.60
2019-02-15T11:38:17.651Z,12.00
2019-02-15T11:40:46.478Z,12.00
2019-02-15T11:43:15.333Z,12.15
2019-02-15T11:45:46.377Z,11.93
2019-02-15T11:48:33.486Z,12.00
2019-02-15T11:51:02.416Z,11.90
2019-02-15T11:53:31.557Z,11.53
2019-02-15T11:56:00.384Z,11.83
2019-02-15T11:58:29.298Z,11.33
2019-02-15T12:00:59.900Z,10.70
2019-02-15T12:03:28.793Z,10.17
2019-02-15T12:05:58.641Z,11.40
2019-02-15T12:08:36.004Z,10.93
2019-02-15T12:11:04.908Z,10.55
2019-02-15T12:13:33.699Z,10.78
2019-02-15T12:16:02.602Z,10.88
2019-02-15T12:18:31.492Z,11.03
2019-02-15T12:21:00.566Z,10.50
2019-02-15T12:23:29.544Z,10.90
2019-02-15T12:25:58.584Z,11.03
2019-02-15T12:28:27.694Z,10.82
2019-02-15T12:30:56.744Z,10.82
2019-02-15T12:33:25.818Z,9.83
2019-02-15T12:35:54.581Z,10.40
2019-02-15T12:38:23.594Z,9.50
2019-02-15T12:40:52.420Z,9.60
2019-02-15T12:43:21.250Z,8.88
2019-02-15T12:45:50.308Z,8.70
2019-02-15T12:48:19.070Z,9.80
2019-02-15T12:50:47.949Z,9.58
2019-02-15T12:53:17.000Z,9.28
2019-02-15T12:55:45.795Z,9.40
2019-02-15T12:58:14.556Z,9.15
2019-02-15T13:00:43.372Z,9.13
2019-02-15T13:03:12.705Z,9.28
2019-02-15T13:05:41.951Z,8.80
2019-02-15T13:08:11.020Z,9.07
2019-02-15T13:10:40.546Z,8.98
2019-02-15T13:13:09.468Z,8.98
2019-02-15T13:15:38.288Z,9.35
2019-02-15T13:18:07.228Z,8.80
2019-02-15T13:20:36.071Z,8.95
2019-02-15T13:23:04.882Z,8.50
2019-02-15T13:25:36.718Z,8.67
2019-02-15T13:28:04.379Z,8.25
2019-02-15T13:30:33.199Z,8.60
2019-02-15T13:33:02.314Z,8.60
2019-02-15T13:35:31.176Z,8.67
2019-02-15T13:37:59.991Z,8.83
2019-02-15T13:40:28.747Z,8.90
2019-02-15T13:42:57.840Z,8.93
2019-02-15T13:45:26.583Z,8.77
2019-02-15T13:47:55.352Z,8.50
2019-02-15T13:50:24.164Z,9.18
2019-02-15T13:52:52.934Z,8.70
2019-02-15T13:55:21.764Z,8.70
2019-02-15T13:57:50.543Z,8.63
2019-02-15T14:00:19.300Z,8.50
2019-02-15T14:02:48.063Z,8.18
2019-02-15T14:05:17.153Z,8.15
2019-02-15T14:07:45.983Z,8.40
2019-02-15T14:10:14.832Z,8.47
2019-02-15T14:12:43.682Z,8.00
2019-02-15T14:15:12.889Z,8.25
2019-02-15T14:17:46.274Z,8.20
2019-02-15T14:20:12.544Z,7.85
2019-02-15T14:22:41.372Z,7.70
2019-02-15T14:25:10.730Z,7.70
2019-02-15T14:27:39.609Z,7.22
2019-02-15T14:30:09.449Z,7.85
2019-02-15T14:32:38.291Z,8.00
2019-02-15T14:35:08.175Z,9.20
2019-02-15T14:37:36.940Z,9.33
2019-02-15T14:40:05.792Z,9.30
2019-02-15T14:42:34.621Z,9.20
2019-02-15T14:45:03.808Z,8.95
2019-02-15T14:47:32.642Z,8.45
2019-02-15T14:50:01.386Z,7.92
2019-02-15T14:52:30.137Z,7.67
2019-02-15T14:54:59.133Z,7.70
2019-02-15T14:57:27.876Z,7.30
2019-02-15T14:59:56.993Z,6.90
2019-02-15T15:02:25.790Z,6.80
2019-02-15T15:04:54.562Z,6.62
2019-02-15T15:07:23.308Z,6.80
2019-02-15T15:09:52.324Z,6.50
2019-02-15T15:12:21.672Z,6.78
2019-02-15T15:14:50.581Z,6.63
2019-02-15T15:17:19.590Z,6.55
2019-02-15T15:19:48.632Z,6.20
2019-02-15T15:22:17.494Z,6.37
2019-02-15T15:24:46.287Z,6.53
2019-02-15T15:27:15.663Z,6.00
2019-02-15T15:29:44.436Z,6.03
2019-02-15T15:32:13.480Z,6.17
2019-02-15T15:34:42.397Z,5.97
2019-02-15T15:37:16.508Z,5.53
2019-02-15T15:39:41.632Z,5.40
2019-02-15T15:42:10.466Z,5.75
2019-02-15T15:44:39.224Z,5.58
2019-02-15T15:47:08.135Z,6.10
2019-02-15T15:49:36.890Z,6.80
2019-02-15T15:52:05.972Z,6.78
2019-02-15T15:54:34.961Z,6.00
2019-02-15T15:57:03.724Z,7.90
2019-02-15T15:59:32.893Z,8.03
2019-02-15T16:02:01.660Z,9.00
2019-02-15T16:04:30.655Z,8.75
2019-02-15T16:06:59.438Z,8.50
2019-02-15T16:09:28.269Z,9.88
2019-02-15T16:11:57.055Z,8.88
2019-02-15T16:14:25.863Z,9.03
2019-02-15T16:16:54.619Z,9.50
2019-02-15T16:19:23.409Z,10.00
2019-02-15T16:21:52.220Z,9.43
2019-02-15T16:24:20.988Z,10.00
2019-02-15T16:26:50.076Z,9.63
2019-02-15T16:29:18.928Z,9.53
2019-02-15T16:31:47.675Z,9.80
2019-02-15T16:34:17.900Z,9.10
2019-02-15T16:36:47.093Z,9.00
2019-02-15T16:39:15.921Z,9.40
2019-02-15T16:41:44.663Z,8.95
2019-02-15T16:44:13.615Z,9.18
2019-02-15T16:46:42.443Z,8.78
2019-02-15T16:49:11.192Z,9.20
2019-02-15T16:51:39.956Z,9.60
2019-02-15T16:54:08.732Z,9.15
2019-02-15T16:56:37.567Z,9.63
2019-02-15T16:59:06.316Z,9.63
2019-02-15T17:01:35.160Z,9.97
2019-02-15T17:04:04.078Z,10.00
2019-02-15T17:06:33.133Z,9.38
2019-02-15T17:09:01.886Z,9.95
2019-02-15T17:11:31.088Z,10.25
2019-02-15T17:13:59.941Z,9.73
2019-02-15T17:16:28.935Z,9.60
2019-02-15T17:18:57.691Z,8.53
2019-02-15T17:21:26.554Z,8.50
2019-02-15T17:23:55.284Z,8.43
2019-02-15T17:26:24.059Z,8.45
2019-02-15T17:28:52.799Z,8.53
2019-02-15T17:31:21.573Z,8.15
2019-02-15T17:33:50.366Z,8.28
2019-02-15T17:36:19.143Z,9.13
2019-02-15T17:38:48.156Z,8.00
2019-02-15T17:41:16.904Z,7.90
2019-02-15T17:43:45.649Z,8.45
2019-02-15T17:46:14.412Z,8.50
2019-02-15T17:48:43.325Z,8.45
2019-02-15T17:51:12.684Z,8.35
2019-02-15T17:53:41.448Z,8.30
2019-02-15T17:56:10.281Z,8.45
2019-02-15T17:58:39.701Z,8.23
2019-02-15T18:01:09.569Z,8.28
2019-02-15T18:03:38.593Z,8.30
2019-02-15T18:06:07.352Z,8.43
2019-02-15T18:08:36.423Z,8.18
2019-02-15T18:11:05.240Z,8.80
2019-02-15T18:13:34.312Z,7.95
2019-02-15T18:16:03.063Z,8.30
2019-02-15T18:18:32.315Z,8.70
2019-02-15T18:21:01.094Z,8.80
2019-02-15T18:23:29.845Z,9.30
2019-02-15T18:25:58.584Z,87.97
2019-02-15T18:28:27.356Z,33.53
2019-02-15T18:30:56.101Z,31.27
2019-02-15T18:33:24.858Z,29.70
2019-02-15T18:35:54.016Z,27.42
2019-02-15T18:38:23.781Z,26.62
2019-02-15T18:40:52.525Z,26.00
2019-02-15T18:43:21.844Z,19.23
2019-02-15T18:45:51.308Z,15.20
2019-02-15T18:48:20.128Z,11.53
2019-02-15T18:50:49.005Z,10.60
2019-02-15T18:53:17.759Z,11.38
2019-02-15T18:55:46.508Z,11.48
2019-02-15T18:58:15.334Z,12.00
2019-02-15T19:00:44.352Z,12.30
2019-02-15T19:03:13.390Z,11.78
2019-02-15T19:05:42.204Z,12.28
2019-02-15T19:08:10.988Z,11.78
2019-02-15T19:10:40.060Z,11.60
2019-02-15T19:13:08.821Z,9.88
2019-02-15T19:15:37.665Z,9.90
2019-02-15T19:18:06.555Z,9.23
2019-02-15T19:20:35.321Z,9.35
2019-02-15T19:23:04.419Z,9.05
2019-02-15T19:25:33.370Z,9.73
2019-02-15T19:28:10.441Z,9.57
2019-02-15T19:30:39.752Z,9.98
2019-02-15T19:33:09.057Z,9.65
2019-02-15T19:35:38.076Z,9.20
2019-02-15T19:38:06.846Z,9.67
2019-02-15T19:40:36.277Z,10.10
2019-02-15T19:43:05.166Z,11.12
2019-02-15T19:45:34.581Z,11.18
2019-02-15T19:48:03.459Z,11.33
2019-02-15T19:50:32.370Z,11.68
2019-02-15T19:53:01.470Z,10.63
2019-02-15T19:55:30.365Z,9.33
2019-02-15T19:57:59.172Z,8.80
2019-02-15T20:00:28.117Z,9.25
2019-02-15T20:02:56.920Z,9.50
2019-02-15T20:05:25.817Z,9.53
2019-02-15T20:07:54.654Z,9.13
2019-02-15T20:10:23.613Z,10.10
2019-02-15T20:12:52.379Z,9.63
2019-02-15T20:15:21.545Z,9.90
2019-02-15T20:17:50.405Z,10.07
2019-02-15T20:20:19.216Z,11.63
2019-02-15T20:22:48.001Z,13.13
2019-02-15T20:25:16.994Z,14.80
2019-02-15T20:27:46.895Z,13.50
2019-02-15T20:30:17.344Z,12.63
2019-02-15T20:32:46.450Z,13.68
2019-02-15T20:35:15.213Z,13.70
2019-02-15T20:37:44.053Z,14.10
2019-02-15T20:40:13.308Z,15.15
2019-02-15T20:42:42.245Z,14.47
2019-02-15T20:45:13.962Z,15.43
2019-02-15T20:47:43.052Z,15.30
2019-02-15T20:50:12.073Z,15.37
2019-02-15T20:52:40.936Z,16.60
2019-02-15T20:55:11.461Z,17.30
2019-02-15T20:57:40.571Z,17.35
2019-02-15T21:00:12.101Z,16.73
2019-02-15T21:02:40.874Z,16.17
2019-02-15T21:05:10.329Z,15.72
2019-02-15T21:07:39.119Z,14.50
2019-02-15T21:10:09.641Z,15.20
2019-02-15T21:12:39.631Z,14.83
2019-02-15T21:15:09.048Z,14.60
2019-02-15T21:17:38.177Z,16.75
2019-02-15T21:20:08.490Z,19.10
2019-02-15T21:22:37.354Z,18.70
2019-02-15T21:25:07.455Z,18.43
2019-02-15T21:27:36.221Z,17.62
2019-02-15T21:30:06.131Z,15.40
2019-02-15T21:32:35.402Z,14.03
2019-02-15T21:35:04.455Z,13.43
2019-02-15T21:37:33.244Z,13.28
2019-02-15T21:40:02.073Z,13.50
2019-02-15T21:42:30.904Z,14.10
2019-02-15T21:44:59.683Z,13.28
2019-02-15T21:47:28.847Z,13.30
2019-02-15T21:49:57.612Z,11.90
2019-02-15T21:52:26.448Z,11.88
2019-02-15T21:54:55.566Z,11.70
2019-02-15T21:57:24.946Z,11.38
2019-02-15T21:59:53.730Z,11.00
2019-02-15T22:02:22.685Z,12.60
2019-02-15T22:04:51.448Z,13.22
2019-02-15T22:07:20.485Z,12.88
2019-02-15T22:09:49.364Z,13.50
2019-02-15T22:12:18.123Z,13.72
2019-02-15T22:14:47.064Z,14.33
2019-02-15T22:17:15.831Z,15.18
2019-02-15T22:19:44.601Z,14.85
2019-02-15T22:22:13.424Z,19.65
2019-02-15T22:24:42.183Z,17.98
2019-02-15T22:27:10.955Z,16.55
2019-02-15T22:29:39.824Z,14.50
2019-02-15T22:32:08.700Z,14.55
2019-02-15T22:34:38.159Z,14.75
2019-02-15T22:37:07.327Z,15.23
2019-02-15T22:39:36.099Z,16.00
2019-02-15T22:42:05.368Z,15.98
2019-02-15T22:44:34.477Z,13.75
2019-02-15T22:47:03.513Z,13.60
2019-02-15T22:49:42.943Z,15.45
2019-02-15T22:52:03.124Z,17.80
2019-02-15T22:54:32.463Z,15.75
2019-02-15T22:57:01.266Z,15.80
2019-02-15T22:59:31.104Z,15.18
2019-02-15T23:02:00.018Z,14.45
2019-02-15T23:04:29.071Z,15.63
2019-02-15T23:06:57.844Z,15.57
2019-02-15T23:09:26.790Z,14.47
2019-02-15T23:11:55.901Z,14.50
2019-02-15T23:14:24.960Z,14.15
2019-02-15T23:16:53.830Z,14.40
2019-02-15T23:19:22.677Z,14.98
2019-02-15T23:21:51.524Z,16.50
2019-02-15T23:24:20.289Z,14.85
2019-02-15T23:26:49.046Z,14.38
2019-02-15T23:29:17.964Z,14.70
2019-02-15T23:31:47.101Z,16.52
2019-02-15T23:34:15.876Z,15.23
2019-02-15T23:36:44.652Z,15.40
2019-02-15T23:39:13.761Z,16.05
2019-02-15T23:41:42.861Z,14.35
2019-02-15T23:44:12.001Z,14.78
2019-02-15T23:46:40.755Z,15.68
2019-02-15T23:49:09.592Z,15.83
2019-02-15T23:51:38.375Z,15.53
2019-02-15T23:54:07.181Z,15.78
2019-02-15T23:56:36.047Z,15.03
2019-02-15T23:59:04.804Z,13.88
